createdAt,value
2022-09-27T00:00:25.412Z,99.99
2022-09-27T00:01:25.602Z,99.99
2022-09-27T00:02:25.744Z,99.99
2022-09-27T00:03:25.780Z,99.99
2022-09-27T00:04:25.941Z,99.99
2022-09-27T00:05:26.054Z,99.99
2022-09-27T00:06:26.152Z,99.99
2022-09-27T00:07:26.300Z,99.99
2022-09-27T00:08:26.432Z,99.99
2022-09-27T00:09:26.589Z,99.99
2022-09-27T00:10:26.707Z,99.99
2022-09-27T00:11:26.938Z,99.99
2022-09-27T00:12:27.022Z,99.99
2022-09-27T00:13:27.191Z,99.99
2022-09-27T00:14:27.377Z,99.99
2022-09-27T00:15:27.522Z,99.99
2022-09-27T00:16:27.766Z,99.99
2022-09-27T00:17:27.857Z,99.99
2022-09-27T00:18:28.010Z,99.99
2022-09-27T00:19:28.172Z,99.99
2022-09-27T00:20:28.257Z,99.99
2022-09-27T00:21:28.449Z,99.99
2022-09-27T00:22:28.678Z,99.99
2022-09-27T00:23:28.662Z,99.99
2022-09-27T00:24:28.823Z,99.99
2022-09-27T00:25:28.950Z,99.99
2022-09-27T00:26:29.248Z,99.99
2022-09-27T00:27:29.234Z,99.99
2022-09-27T00:28:29.365Z,99.99
2022-09-27T00:29:29.535Z,99.99
2022-09-27T00:30:29.671Z,99.99
2022-09-27T00:31:30.097Z,99.99
2022-09-27T00:32:29.978Z,99.99
2022-09-27T00:33:30.085Z,99.99
2022-09-27T00:34:30.220Z,99.99
2022-09-27T00:35:30.375Z,99.99
2022-09-27T00:36:30.462Z,99.99
2022-09-27T00:37:30.648Z,99.99
2022-09-27T00:38:30.768Z,99.99
2022-09-27T00:39:30.880Z,99.99
2022-09-27T00:40:31.010Z,99.99
2022-09-27T00:41:31.119Z,99.99
2022-09-27T00:42:31.245Z,99.99
2022-09-27T00:43:31.309Z,99.99
2022-09-27T00:44:31.434Z,99.99
2022-09-27T00:45:31.576Z,99.99
2022-09-27T00:46:31.814Z,99.99
2022-09-27T00:47:31.875Z,99.99
2022-09-27T00:48:32.030Z,99.99
2022-09-27T00:49:33.632Z,99.99
2022-09-27T00:50:32.352Z,99.99
2022-09-27T00:51:32.516Z,99.99
2022-09-27T00:52:32.610Z,99.99
2022-09-27T00:53:32.757Z,99.99
2022-09-27T00:54:32.888Z,99.99
2022-09-27T00:55:33.032Z,99.99
2022-09-27T00:56:33.219Z,99.99
2022-09-27T00:57:33.339Z,99.99
2022-09-27T00:58:33.416Z,99.99
2022-09-27T00:59:33.576Z,99.99
2022-09-27T01:00:33.739Z,99.99
2022-09-27T01:01:33.962Z,99.99
2022-09-27T01:02:34.051Z,99.99
2022-09-27T01:03:34.178Z,99.99
2022-09-27T01:04:34.339Z,99.99
2022-09-27T01:05:34.475Z,99.99
2022-09-27T01:06:34.645Z,99.99
2022-09-27T01:07:34.787Z,99.99
2022-09-27T01:08:34.867Z,99.99
2022-09-27T01:09:35.017Z,99.99
2022-09-27T01:10:35.103Z,99.99
2022-09-27T01:11:35.246Z,99.99
2022-09-27T01:12:35.388Z,99.99
2022-09-27T01:13:35.551Z,99.99
2022-09-27T01:14:35.665Z,99.99
2022-09-27T01:15:35.841Z,99.99
2022-09-27T01:16:35.901Z,99.99
2022-09-27T01:17:36.126Z,99.99
2022-09-27T01:18:36.166Z,99.99
2022-09-27T01:19:36.306Z,99.99
2022-09-27T01:20:36.434Z,99.99
2022-09-27T01:21:36.666Z,99.99
2022-09-27T01:22:36.714Z,99.99
2022-09-27T01:23:36.817Z,99.99
2022-09-27T01:24:36.954Z,99.99
2022-09-27T01:25:37.082Z,99.99
2022-09-27T01:26:37.248Z,99.99
2022-09-27T01:27:37.405Z,99.99
2022-09-27T01:28:37.526Z,99.99
2022-09-27T01:29:37.674Z,99.99
2022-09-27T01:30:37.861Z,99.99
2022-09-27T01:31:38.021Z,99.99
2022-09-27T01:32:38.102Z,99.99
2022-09-27T01:33:38.223Z,99.99
2022-09-27T01:34:38.324Z,99.99
2022-09-27T01:35:38.484Z,99.99
2022-09-27T01:36:38.614Z,99.99
2022-09-27T01:37:38.755Z,99.99
2022-09-27T01:38:38.916Z,99.99
2022-09-27T01:39:39.102Z,99.99
2022-09-27T01:40:39.289Z,99.99
2022-09-27T01:41:39.363Z,99.99
2022-09-27T01:42:39.512Z,99.99
2022-09-27T01:43:39.637Z,99.99
2022-09-27T01:44:39.723Z,99.99
2022-09-27T01:45:39.872Z,99.99
2022-09-27T01:46:40.130Z,99.99
2022-09-27T01:47:40.152Z,99.99
2022-09-27T01:48:40.352Z,99.99
2022-09-27T01:49:40.459Z,99.99
2022-09-27T01:50:40.583Z,99.99
2022-09-27T01:51:40.665Z,99.99
2022-09-27T01:52:40.874Z,99.99
2022-09-27T01:53:40.962Z,99.99
2022-09-27T01:54:41.162Z,99.99
2022-09-27T01:55:41.228Z,99.99
2022-09-27T01:56:41.401Z,99.99
2022-09-27T01:57:41.536Z,99.99
2022-09-27T01:58:41.672Z,99.99
2022-09-27T01:59:41.853Z,99.99
2022-09-27T02:00:41.964Z,99.99
2022-09-27T02:01:42.114Z,99.99
2022-09-27T02:02:42.282Z,99.99
2022-09-27T02:03:42.309Z,99.99
2022-09-27T02:04:42.465Z,99.99
2022-09-27T02:05:42.564Z,99.99
2022-09-27T02:06:42.661Z,99.99
2022-09-27T02:07:42.789Z,99.99
2022-09-27T02:08:42.930Z,99.99
2022-09-27T02:09:43.051Z,99.99
2022-09-27T02:10:43.210Z,99.99
2022-09-27T02:11:43.349Z,99.99
2022-09-27T02:12:43.483Z,99.99
2022-09-27T02:13:43.643Z,99.99
2022-09-27T02:14:43.782Z,99.99
2022-09-27T02:15:43.986Z,99.99
2022-09-27T02:16:44.080Z,99.99
2022-09-27T02:17:44.232Z,99.99
2022-09-27T02:18:44.398Z,99.99
2022-09-27T02:19:44.530Z,99.99
2022-09-27T02:20:44.700Z,99.99
2022-09-27T02:21:44.832Z,99.99
2022-09-27T02:22:44.976Z,99.99
2022-09-27T02:23:45.158Z,99.99
2022-09-27T02:24:45.247Z,99.99
2022-09-27T02:25:45.423Z,99.99
2022-09-27T02:26:45.537Z,99.99
2022-09-27T02:27:45.629Z,99.99
2022-09-27T02:28:45.827Z,99.99
2022-09-27T02:29:45.958Z,99.99
2022-09-27T02:30:46.155Z,99.99
2022-09-27T02:31:46.262Z,99.99
2022-09-27T02:32:46.348Z,99.99
2022-09-27T02:33:46.458Z,99.99
2022-09-27T02:34:46.619Z,99.99
2022-09-27T02:35:46.770Z,99.99
2022-09-27T02:36:46.879Z,99.99
2022-09-27T02:37:47.054Z,99.99
2022-09-27T02:38:47.198Z,99.99
2022-09-27T02:39:47.298Z,99.99
2022-09-27T02:40:47.459Z,99.99
2022-09-27T02:41:47.525Z,99.99
2022-09-27T02:42:47.658Z,99.99
2022-09-27T02:43:47.790Z,99.99
2022-09-27T02:44:47.918Z,99.99
2022-09-27T02:45:48.170Z,99.99
2022-09-27T02:46:48.201Z,99.99
2022-09-27T02:47:48.367Z,99.99
2022-09-27T02:48:48.510Z,99.99
2022-09-27T02:49:48.618Z,99.99
2022-09-27T02:50:48.748Z,99.99
2022-09-27T02:51:48.887Z,99.99
2022-09-27T02:52:49.068Z,99.99
2022-09-27T02:53:49.135Z,99.99
2022-09-27T02:54:49.279Z,99.99
2022-09-27T02:55:49.447Z,99.99
2022-09-27T02:56:49.590Z,99.99
2022-09-27T02:57:49.749Z,99.99
2022-09-27T02:58:49.887Z,99.99
2022-09-27T02:59:50.071Z,99.99
2022-09-27T03:00:50.168Z,99.99
2022-09-27T03:01:50.343Z,99.99
2022-09-27T03:02:50.503Z,99.99
2022-09-27T03:03:50.584Z,99.99
2022-09-27T03:04:50.730Z,99.99
2022-09-27T03:05:50.838Z,99.99
2022-09-27T03:06:50.996Z,99.99
2022-09-27T03:07:51.124Z,99.99
2022-09-27T03:08:51.285Z,99.99
2022-09-27T03:09:51.426Z,99.99
2022-09-27T03:10:51.604Z,99.99
2022-09-27T03:11:51.672Z,99.99
2022-09-27T03:12:51.806Z,99.99
2022-09-27T03:14:07.890Z,99.99
2022-09-27T03:14:53.136Z,99.99
2022-09-27T03:15:52.257Z,99.99
2022-09-27T03:16:52.457Z,99.99
2022-09-27T03:17:52.568Z,99.99
2022-09-27T03:18:52.704Z,99.99
2022-09-27T03:19:52.846Z,99.99
2022-09-27T03:20:53.059Z,99.99
2022-09-27T03:21:53.114Z,99.99
2022-09-27T03:22:53.271Z,99.99
2022-09-27T03:23:53.385Z,99.99
2022-09-27T03:24:53.526Z,99.99
2022-09-27T03:25:53.806Z,99.99
2022-09-27T03:26:53.853Z,99.99
2022-09-27T03:27:53.996Z,99.99
2022-09-27T03:28:54.121Z,99.99
2022-09-27T03:29:54.251Z,99.99
2022-09-27T03:30:54.445Z,99.99
2022-09-27T03:31:54.495Z,99.99
2022-09-27T03:32:54.617Z,99.99
2022-09-27T03:33:54.753Z,99.99
2022-09-27T03:34:54.904Z,99.99
2022-09-27T03:35:55.056Z,99.99
2022-09-27T03:36:55.144Z,99.99
2022-09-27T03:37:55.255Z,99.99
2022-09-27T03:38:55.397Z,99.99
2022-09-27T03:39:55.543Z,99.99
2022-09-27T03:40:55.772Z,99.99
2022-09-27T03:41:55.804Z,99.99
2022-09-27T03:42:55.964Z,99.99
2022-09-27T03:43:56.080Z,99.99
2022-09-27T03:44:56.235Z,99.99
2022-09-27T03:45:56.420Z,99.99
2022-09-27T03:46:56.479Z,99.99
2022-09-27T03:47:56.609Z,99.99
2022-09-27T03:48:56.723Z,99.99
2022-09-27T03:49:56.844Z,99.99
2022-09-27T03:50:56.992Z,99.99
2022-09-27T03:51:57.137Z,99.99
2022-09-27T03:52:57.252Z,99.99
2022-09-27T03:53:57.405Z,99.99
2022-09-27T03:55:01.983Z,99.99
2022-09-27T03:55:57.713Z,99.99
2022-09-27T03:56:57.880Z,99.99
2022-09-27T03:57:58.014Z,99.99
2022-09-27T03:58:58.155Z,99.99
2022-09-27T03:59:58.305Z,99.99
2022-09-27T04:00:58.494Z,99.99
2022-09-27T04:01:58.581Z,99.99
2022-09-27T04:02:58.792Z,99.99
2022-09-27T04:03:58.870Z,99.99
2022-09-27T04:04:58.993Z,99.99
2022-09-27T04:05:59.129Z,99.99
2022-09-27T04:06:59.291Z,99.99
2022-09-27T04:07:59.442Z,99.99
2022-09-27T04:08:59.562Z,99.99
2022-09-27T04:09:59.701Z,99.99
2022-09-27T04:10:59.871Z,99.99
2022-09-27T04:12:00.005Z,99.99
2022-09-27T04:13:00.138Z,99.99
2022-09-27T04:14:00.292Z,99.99
2022-09-27T04:15:00.439Z,99.99
2022-09-27T04:16:00.559Z,99.99
2022-09-27T04:17:00.762Z,99.99
2022-09-27T04:18:00.832Z,99.99
2022-09-27T04:19:00.946Z,99.99
2022-09-27T04:20:01.031Z,99.99
2022-09-27T04:21:01.166Z,99.99
2022-09-27T04:22:01.270Z,99.99
2022-09-27T04:23:01.413Z,99.99
2022-09-27T04:24:01.573Z,99.99
2022-09-27T04:25:01.734Z,99.99
2022-09-27T04:26:01.880Z,99.99
2022-09-27T04:27:02.053Z,99.99
2022-09-27T04:28:02.185Z,99.99
2022-09-27T04:29:02.321Z,99.99
2022-09-27T04:30:02.473Z,99.99
2022-09-27T04:31:02.695Z,99.99
2022-09-27T04:32:02.708Z,99.99
2022-09-27T04:33:02.842Z,99.99
2022-09-27T04:34:03.070Z,99.99
2022-09-27T04:35:11.201Z,99.99
2022-09-27T04:36:03.340Z,99.99
2022-09-27T04:37:03.513Z,99.99
2022-09-27T04:38:03.666Z,99.99
2022-09-27T04:39:03.812Z,99.99
2022-09-27T04:40:03.897Z,99.99
2022-09-27T04:41:04.130Z,99.99
2022-09-27T04:42:04.185Z,99.99
2022-09-27T04:43:04.387Z,99.99
2022-09-27T04:44:04.522Z,99.99
2022-09-27T04:45:04.659Z,99.99
2022-09-27T04:46:04.933Z,99.99
2022-09-27T04:47:05.038Z,99.99
2022-09-27T04:48:05.163Z,99.99
2022-09-27T04:49:05.273Z,99.99
2022-09-27T04:50:05.417Z,99.99
2022-09-27T04:51:05.658Z,99.99
2022-09-27T04:52:05.687Z,99.99
2022-09-27T04:53:05.827Z,99.99
2022-09-27T04:54:05.945Z,99.99
2022-09-27T04:55:06.123Z,99.99
2022-09-27T04:56:06.257Z,99.99
2022-09-27T04:57:06.426Z,99.99
2022-09-27T04:58:06.507Z,99.99
2022-09-27T04:59:10.028Z,99.99
2022-09-27T05:00:06.795Z,99.99
2022-09-27T05:01:06.928Z,99.99
2022-09-27T05:02:07.062Z,99.99
2022-09-27T05:03:07.154Z,99.99
2022-09-27T05:04:07.270Z,99.99
2022-09-27T05:05:07.396Z,99.99
2022-09-27T05:06:07.516Z,99.99
2022-09-27T05:07:07.643Z,99.99
2022-09-27T05:08:07.752Z,99.99
2022-09-27T05:09:07.878Z,99.99
2022-09-27T05:10:08.105Z,99.99
2022-09-27T05:11:08.132Z,99.99
2022-09-27T05:12:08.243Z,99.99
2022-09-27T05:13:08.374Z,99.99
2022-09-27T05:14:08.493Z,99.99
2022-09-27T05:15:08.653Z,99.99
2022-09-27T05:16:08.776Z,99.99
2022-09-27T05:17:08.961Z,99.99
2022-09-27T05:18:09.047Z,99.99
2022-09-27T05:19:09.249Z,99.99
2022-09-27T05:20:09.324Z,99.99
2022-09-27T05:21:09.487Z,99.99
2022-09-27T05:22:09.607Z,99.99
2022-09-27T05:23:09.712Z,99.99
2022-09-27T05:24:09.829Z,99.99
2022-09-27T05:25:11.041Z,99.99
2022-09-27T05:26:10.178Z,99.99
2022-09-27T05:27:10.260Z,99.99
2022-09-27T05:28:10.493Z,99.99
2022-09-27T05:29:10.562Z,99.99
2022-09-27T05:30:10.666Z,99.99
2022-09-27T05:31:10.862Z,99.99
2022-09-27T05:32:10.941Z,99.99
2022-09-27T05:33:11.075Z,99.99
2022-09-27T05:34:11.201Z,99.99
2022-09-27T05:35:11.344Z,99.99
2022-09-27T05:36:11.482Z,99.99
2022-09-27T05:37:11.623Z,99.99
2022-09-27T05:38:11.772Z,99.99
2022-09-27T05:39:11.911Z,99.99
2022-09-27T05:40:36.594Z,99.99
2022-09-27T05:41:13.224Z,99.99
2022-09-27T05:42:12.349Z,99.99
2022-09-27T05:43:12.391Z,99.99
2022-09-27T05:44:12.504Z,99.99
2022-09-27T05:45:12.702Z,99.99
2022-09-27T05:46:12.850Z,99.99
2022-09-27T05:47:13.021Z,99.99
2022-09-27T05:48:13.129Z,99.99
2022-09-27T05:49:13.930Z,99.99
2022-09-27T05:50:13.392Z,99.99
2022-09-27T05:51:13.520Z,99.99
2022-09-27T05:52:16.180Z,99.99
2022-09-27T05:53:14.500Z,99.99
2022-09-27T05:54:14.707Z,99.99
2022-09-27T05:55:14.765Z,99.99
2022-09-27T05:56:14.235Z,99.99
2022-09-27T05:57:14.422Z,99.99
2022-09-27T05:58:15.221Z,99.99
2022-09-27T05:59:15.381Z,99.99
2022-09-27T06:00:14.889Z,99.99
2022-09-27T06:01:15.182Z,99.99
2022-09-27T06:02:15.220Z,99.99
2022-09-27T06:03:16.048Z,99.99
2022-09-27T06:04:15.678Z,99.99
2022-09-27T06:05:15.627Z,99.99
2022-09-27T06:06:16.679Z,99.99
2022-09-27T06:07:15.904Z,99.99
2022-09-27T06:08:16.061Z,99.99
2022-09-27T06:09:16.380Z,99.99
2022-09-27T06:10:16.439Z,99.99
2022-09-27T06:11:16.590Z,99.99
2022-09-27T06:12:16.709Z,99.99
2022-09-27T06:13:16.807Z,99.99
2022-09-27T06:14:17.017Z,99.99
2022-09-27T06:15:17.142Z,99.99
2022-09-27T06:16:17.388Z,99.99
2022-09-27T06:17:17.424Z,99.99
2022-09-27T06:18:17.618Z,99.99
2022-09-27T06:19:17.749Z,99.99
2022-09-27T06:20:17.874Z,99.99
2022-09-27T06:21:17.948Z,99.99
2022-09-27T06:22:18.070Z,99.99
2022-09-27T06:23:18.894Z,99.99
2022-09-27T06:24:18.350Z,99.99
2022-09-27T06:25:18.485Z,99.99
2022-09-27T06:26:18.609Z,99.99
2022-09-27T06:27:18.766Z,99.99
2022-09-27T06:28:18.859Z,99.99
2022-09-27T06:29:18.965Z,99.99
2022-09-27T06:30:20.528Z,99.99
2022-09-27T06:31:19.323Z,99.99
2022-09-27T06:32:19.459Z,99.99
2022-09-27T06:33:19.605Z,99.99
2022-09-27T06:34:19.727Z,99.99
2022-09-27T06:35:19.860Z,99.99
2022-09-27T06:36:20.018Z,99.99
2022-09-27T06:37:20.183Z,99.99
2022-09-27T06:38:20.328Z,99.99
2022-09-27T06:39:20.394Z,99.99
2022-09-27T06:40:20.605Z,99.99
2022-09-27T06:41:20.661Z,99.99
2022-09-27T06:42:20.761Z,99.99
2022-09-27T06:43:20.902Z,99.99
2022-09-27T06:44:21.094Z,99.99
2022-09-27T06:45:21.187Z,99.99
2022-09-27T06:46:21.396Z,99.99
2022-09-27T06:47:21.467Z,99.99
2022-09-27T06:48:21.606Z,99.99
2022-09-27T06:49:21.704Z,99.99
2022-09-27T06:50:21.868Z,99.99
2022-09-27T06:51:22.011Z,99.99
2022-09-27T06:52:22.144Z,99.99
2022-09-27T06:53:22.284Z,99.99
2022-09-27T06:54:22.464Z,99.99
2022-09-27T06:55:22.627Z,99.99
2022-09-27T06:56:22.664Z,99.99
2022-09-27T06:57:22.797Z,99.99
2022-09-27T06:58:22.939Z,99.99
2022-09-27T06:59:23.185Z,99.99
2022-09-27T07:00:23.214Z,99.99
2022-09-27T07:01:23.409Z,99.99
2022-09-27T07:02:23.517Z,99.99
2022-09-27T07:03:23.574Z,99.99
2022-09-27T07:04:23.726Z,99.99
2022-09-27T07:05:23.878Z,99.99
2022-09-27T07:06:24.025Z,99.99
2022-09-27T07:07:24.156Z,99.99
2022-09-27T07:08:24.294Z,99.99
2022-09-27T07:09:24.443Z,99.99
2022-09-27T07:10:24.582Z,99.99
2022-09-27T07:11:24.713Z,99.99
2022-09-27T07:12:24.845Z,99.99
2022-09-27T07:13:24.963Z,99.99
2022-09-27T07:14:25.103Z,99.99
2022-09-27T07:15:25.272Z,99.99
2022-09-27T07:16:25.490Z,99.99
2022-09-27T07:17:25.563Z,99.99
2022-09-27T07:18:25.691Z,99.99
2022-09-27T07:19:25.853Z,99.99
2022-09-27T07:20:26.107Z,99.99
2022-09-27T07:21:26.131Z,99.99
2022-09-27T07:22:26.264Z,99.99
2022-09-27T07:23:27.833Z,99.99
2022-09-27T07:24:26.587Z,99.99
2022-09-27T07:25:26.697Z,99.99
2022-09-27T07:26:26.873Z,99.99
2022-09-27T07:27:26.974Z,99.99
2022-09-27T07:28:27.154Z,99.99
2022-09-27T07:29:27.286Z,99.99
2022-09-27T07:30:27.563Z,99.99
2022-09-27T07:31:27.592Z,99.99
2022-09-27T07:32:27.710Z,99.99
2022-09-27T07:33:27.849Z,99.99
2022-09-27T07:34:27.980Z,99.99
2022-09-27T07:35:28.114Z,99.99
2022-09-27T07:36:28.261Z,99.99
2022-09-27T07:37:28.389Z,99.99
2022-09-27T07:38:28.541Z,99.99
2022-09-27T07:39:28.638Z,99.99
2022-09-27T07:40:28.813Z,99.99
2022-09-27T07:41:28.922Z,99.99
2022-09-27T07:42:29.062Z,99.99
2022-09-27T07:43:29.162Z,99.99
2022-09-27T07:44:29.330Z,99.99
2022-09-27T07:45:29.512Z,99.99
2022-09-27T07:46:29.571Z,99.99
2022-09-27T07:47:29.649Z,99.99
2022-09-27T07:48:29.809Z,99.99
2022-09-27T07:49:30.642Z,99.99
2022-09-27T07:50:30.056Z,99.99
2022-09-27T07:51:30.143Z,99.99
2022-09-27T07:52:30.261Z,99.99
2022-09-27T07:53:30.359Z,99.99
2022-09-27T07:54:30.500Z,99.99
2022-09-27T07:55:30.615Z,99.99
2022-09-27T07:56:30.778Z,99.99
2022-09-27T07:57:30.919Z,99.99
2022-09-27T07:58:31.068Z,99.99
2022-09-27T07:59:31.166Z,99.99
2022-09-27T08:00:31.310Z,99.99
2022-09-27T08:01:31.509Z,99.99
2022-09-27T08:02:31.658Z,99.99
2022-09-27T08:03:31.743Z,99.99
2022-09-27T08:04:31.831Z,99.99
2022-09-27T08:05:31.929Z,99.99
2022-09-27T08:06:32.088Z,99.99
2022-09-27T08:07:32.181Z,99.99
2022-09-27T08:08:32.301Z,99.99
2022-09-27T08:09:32.433Z,99.99
2022-09-27T08:10:32.529Z,99.99
2022-09-27T08:11:32.680Z,99.99
2022-09-27T08:12:32.862Z,99.99
2022-09-27T08:13:32.941Z,99.99
2022-09-27T08:14:35.546Z,99.99
2022-09-27T08:15:34.208Z,99.99
2022-09-27T08:16:33.348Z,99.99
2022-09-27T08:17:33.461Z,99.99
2022-09-27T08:18:33.611Z,99.99
2022-09-27T08:19:33.716Z,99.99
2022-09-27T08:20:33.893Z,99.99
2022-09-27T08:21:33.969Z,99.99
2022-09-27T08:22:34.138Z,99.99
2022-09-27T08:23:34.217Z,99.99
2022-09-27T08:24:34.358Z,99.99
2022-09-27T08:25:34.501Z,99.99
2022-09-27T08:26:34.631Z,99.99
2022-09-27T08:27:34.752Z,99.99
2022-09-27T08:28:34.859Z,99.99
2022-09-27T08:29:34.980Z,99.99
2022-09-27T08:30:35.091Z,99.99
2022-09-27T08:31:35.239Z,99.99
2022-09-27T08:32:35.344Z,99.99
2022-09-27T08:33:41.109Z,99.99
2022-09-27T08:34:36.619Z,99.99
2022-09-27T08:35:35.719Z,99.99
2022-09-27T08:36:35.826Z,99.99
2022-09-27T08:37:35.979Z,99.99
2022-09-27T08:38:36.087Z,99.99
2022-09-27T08:39:36.186Z,99.99
2022-09-27T08:40:36.390Z,99.99
2022-09-27T08:41:36.500Z,99.99
2022-09-27T08:42:36.588Z,99.99
2022-09-27T08:43:36.719Z,99.99
2022-09-27T08:44:36.818Z,99.99
2022-09-27T08:45:36.996Z,99.99
2022-09-27T08:46:37.127Z,99.99
2022-09-27T08:47:37.207Z,99.33
2022-09-27T08:48:37.362Z,99.99
2022-09-27T08:49:37.455Z,98.88
2022-09-27T08:50:40.195Z,99.02
2022-09-27T08:51:37.749Z,99.99
2022-09-27T08:52:37.897Z,98.47
2022-09-27T08:53:38.008Z,98.88
2022-09-27T08:54:38.149Z,98.68
2022-09-27T08:55:38.289Z,99.14
2022-09-27T08:56:38.438Z,99.24
2022-09-27T08:57:38.536Z,99.14
2022-09-27T08:58:38.688Z,99.04
2022-09-27T08:59:38.816Z,98.57
2022-09-27T09:00:38.960Z,99.08
2022-09-27T09:01:39.078Z,97.90
2022-09-27T09:02:39.179Z,98.41
2022-09-27T09:03:39.277Z,98.52
2022-09-27T09:04:39.418Z,99.99
2022-09-27T09:05:39.517Z,99.23
2022-09-27T09:06:39.669Z,98.41
2022-09-27T09:07:39.778Z,98.57
2022-09-27T09:08:42.929Z,97.60
2022-09-27T09:09:40.023Z,97.90
2022-09-27T09:10:40.186Z,98.68
2022-09-27T09:11:40.278Z,99.49
2022-09-27T09:12:40.428Z,98.52
2022-09-27T09:13:40.578Z,99.33
2022-09-27T09:14:40.693Z,99.23
2022-09-27T09:15:40.788Z,99.23
2022-09-27T09:16:40.957Z,98.98
2022-09-27T09:17:41.809Z,99.29
2022-09-27T09:18:41.205Z,99.65
2022-09-27T09:19:41.335Z,99.65
2022-09-27T09:20:42.075Z,97.61
2022-09-27T09:21:41.586Z,98.11
2022-09-27T09:22:41.688Z,97.81
2022-09-27T09:23:41.787Z,98.73
2022-09-27T09:24:41.915Z,99.19
2022-09-27T09:25:42.025Z,99.40
2022-09-27T09:26:42.138Z,98.63
2022-09-27T09:27:42.225Z,98.83
2022-09-27T09:28:42.348Z,98.22
2022-09-27T09:29:42.459Z,98.93
2022-09-27T09:30:42.645Z,99.90
2022-09-27T09:31:42.803Z,99.99
2022-09-27T09:32:42.864Z,99.99
2022-09-27T09:33:42.988Z,99.99
2022-09-27T09:34:43.095Z,99.99
2022-09-27T09:35:43.214Z,99.99
2022-09-27T09:36:43.323Z,99.99
2022-09-27T09:37:43.416Z,99.99
2022-09-27T09:38:43.543Z,99.99
2022-09-27T09:39:43.642Z,99.99
2022-09-27T09:40:43.833Z,99.99
2022-09-27T09:41:43.876Z,99.99
2022-09-27T09:42:44.015Z,99.99
2022-09-27T09:43:44.104Z,99.99
2022-09-27T09:44:44.223Z,99.99
2022-09-27T09:45:44.397Z,99.99
2022-09-27T09:46:45.873Z,99.99
2022-09-27T09:47:44.560Z,99.99
2022-09-27T09:48:44.717Z,99.99
2022-09-27T09:49:44.804Z,99.99
2022-09-27T09:50:44.932Z,99.99
2022-09-27T09:51:45.098Z,99.99
2022-09-27T09:52:45.206Z,99.99
2022-09-27T09:53:45.339Z,99.99
2022-09-27T09:54:45.476Z,99.99
2022-09-27T09:55:45.627Z,99.99
2022-09-27T09:56:45.794Z,99.99
2022-09-27T09:57:45.864Z,99.99
2022-09-27T09:58:46.027Z,99.99
2022-09-27T09:59:46.145Z,99.99
2022-09-27T10:00:46.318Z,99.99
2022-09-27T10:01:46.431Z,99.99
2022-09-27T10:02:46.535Z,99.99
2022-09-27T10:03:46.648Z,99.99
2022-09-27T10:04:46.793Z,99.99
2022-09-27T10:05:46.883Z,99.99
2022-09-27T10:06:47.063Z,99.99
2022-09-27T10:07:47.145Z,99.99
2022-09-27T10:08:47.297Z,99.99
2022-09-27T10:09:47.419Z,99.99
2022-09-27T10:10:47.542Z,99.99
2022-09-27T10:11:47.681Z,99.99
2022-09-27T10:12:47.767Z,99.99
2022-09-27T10:13:47.888Z,99.99
2022-09-27T10:14:47.983Z,99.99
2022-09-27T10:15:48.126Z,99.99
2022-09-27T10:16:48.293Z,99.99
2022-09-27T10:17:48.392Z,99.99
2022-09-27T10:18:50.119Z,99.99
2022-09-27T10:19:48.647Z,99.99
2022-09-27T10:20:48.784Z,99.99
2022-09-27T10:21:48.924Z,99.99
2022-09-27T10:22:49.160Z,99.99
2022-09-27T10:23:49.203Z,99.44
2022-09-27T10:24:49.303Z,99.99
2022-09-27T10:25:49.445Z,99.99
2022-09-27T10:26:49.584Z,99.99
2022-09-27T10:27:49.763Z,99.99
2022-09-27T10:28:49.844Z,97.00
2022-09-27T10:29:49.952Z,96.80
2022-09-27T10:30:50.072Z,96.75
2022-09-27T10:31:50.332Z,96.18
2022-09-27T10:32:50.365Z,96.84
2022-09-27T10:33:50.512Z,96.41
2022-09-27T10:34:50.635Z,94.48
2022-09-27T10:35:50.721Z,93.51
2022-09-27T10:36:51.013Z,93.51
2022-09-27T10:37:50.955Z,95.54
2022-09-27T10:38:51.383Z,95.14
2022-09-27T10:39:51.314Z,94.02
2022-09-27T10:40:51.483Z,93.98
2022-09-27T10:41:51.435Z,92.82
2022-09-27T10:42:51.545Z,91.49
2022-09-27T10:43:51.682Z,90.13
2022-09-27T10:44:51.842Z,90.58
2022-09-27T10:45:52.005Z,92.57
2022-09-27T10:46:52.075Z,91.86
2022-09-27T10:47:52.219Z,92.87
2022-09-27T10:48:52.351Z,94.09
2022-09-27T10:49:52.534Z,94.04
2022-09-27T10:50:56.894Z,94.69
2022-09-27T10:51:53.721Z,95.30
2022-09-27T10:52:52.853Z,95.08
2022-09-27T10:53:53.001Z,94.76
2022-09-27T10:54:53.174Z,96.80
2022-09-27T10:55:53.303Z,96.84
2022-09-27T10:56:53.415Z,97.61
2022-09-27T10:57:53.513Z,98.02
2022-09-27T10:58:53.613Z,97.20
2022-09-27T10:59:53.783Z,97.61
2022-09-27T11:00:53.917Z,97.56
2022-09-27T11:01:53.991Z,96.39
2022-09-27T11:02:54.083Z,96.55
2022-09-27T11:03:54.223Z,94.68
2022-09-27T11:04:54.363Z,93.28
2022-09-27T11:05:54.467Z,89.58
2022-09-27T11:06:54.572Z,91.86
2022-09-27T11:07:54.733Z,88.34
2022-09-27T11:08:54.841Z,92.00
2022-09-27T11:09:54.991Z,89.66
2022-09-27T11:10:55.104Z,90.52
2022-09-27T11:11:55.225Z,90.40
2022-09-27T11:12:55.341Z,92.54
2022-09-27T11:13:56.208Z,92.07
2022-09-27T11:14:55.607Z,92.48
2022-09-27T11:15:55.790Z,92.79
2022-09-27T11:16:55.854Z,93.71
2022-09-27T11:17:56.004Z,90.84
2022-09-27T11:18:56.100Z,86.90
2022-09-27T11:19:56.240Z,86.69
2022-09-27T11:20:56.333Z,86.19
2022-09-27T11:21:56.453Z,88.01
2022-09-27T11:22:56.571Z,86.31
2022-09-27T11:23:56.693Z,85.96
2022-09-27T11:24:56.808Z,83.41
2022-09-27T11:25:56.933Z,80.91
2022-09-27T11:26:57.027Z,82.89
2022-09-27T11:27:57.184Z,86.00
2022-09-27T11:28:57.278Z,83.96
2022-09-27T11:29:57.454Z,83.40
2022-09-27T11:30:57.527Z,86.02
2022-09-27T11:31:57.722Z,87.65
2022-09-27T11:32:57.832Z,86.59
2022-09-27T11:33:57.932Z,85.72
2022-09-27T11:34:58.076Z,83.37
2022-09-27T11:35:58.223Z,85.47
2022-09-27T11:36:58.343Z,88.21
2022-09-27T11:37:58.486Z,86.57
2022-09-27T11:39:02.555Z,88.34
2022-09-27T11:39:58.685Z,89.11
2022-09-27T11:40:58.821Z,87.79
2022-09-27T11:41:58.974Z,88.81
2022-09-27T11:42:59.106Z,87.79
2022-09-27T11:43:59.238Z,89.62
2022-09-27T11:45:19.893Z,89.72
2022-09-27T11:46:16.740Z,87.22
2022-09-27T11:47:00.743Z,85.03
2022-09-27T11:47:59.764Z,83.41
2022-09-27T11:48:59.862Z,84.36
2022-09-27T11:49:59.955Z,84.41
2022-09-27T11:51:00.082Z,85.96
2022-09-27T11:52:00.223Z,84.44
2022-09-27T11:53:00.326Z,83.90
2022-09-27T11:54:00.525Z,83.76
2022-09-27T11:55:00.623Z,83.58
2022-09-27T11:56:00.753Z,83.51
2022-09-27T11:57:00.843Z,81.60
2022-09-27T11:58:01.017Z,82.94
2022-09-27T11:59:01.125Z,85.41
2022-09-27T12:00:01.224Z,88.06
2022-09-27T12:01:01.324Z,88.40
2022-09-27T12:02:01.532Z,87.29
2022-09-27T12:03:01.647Z,90.03
2022-09-27T12:04:01.778Z,89.56
2022-09-27T12:05:01.878Z,90.74
2022-09-27T12:06:07.040Z,89.09
2022-09-27T12:07:03.095Z,90.05
2022-09-27T12:08:02.225Z,90.40
2022-09-27T12:09:02.371Z,91.72
2022-09-27T12:10:02.476Z,92.03
2022-09-27T12:11:02.605Z,91.93
2022-09-27T12:12:02.705Z,90.72
2022-09-27T12:13:02.813Z,87.61
2022-09-27T12:14:02.943Z,84.48
2022-09-27T12:15:07.024Z,83.29
2022-09-27T12:16:03.228Z,83.04
2022-09-27T12:17:03.378Z,82.66
2022-09-27T12:18:03.495Z,85.41
2022-09-27T12:19:03.572Z,86.41
2022-09-27T12:20:03.684Z,87.71
2022-09-27T12:21:03.804Z,88.77
2022-09-27T12:22:03.914Z,90.44
2022-09-27T12:23:04.056Z,91.26
2022-09-27T12:24:04.223Z,91.71
2022-09-27T12:25:04.305Z,92.77
2022-09-27T12:26:04.474Z,92.67
2022-09-27T12:27:04.559Z,93.85
2022-09-27T12:28:04.713Z,94.46
2022-09-27T12:29:04.892Z,93.40
2022-09-27T12:30:04.931Z,92.38
2022-09-27T12:31:28.077Z,90.99
2022-09-27T12:32:06.369Z,91.50
2022-09-27T12:33:05.274Z,92.26
2022-09-27T12:34:05.434Z,93.28
2022-09-27T12:35:05.533Z,92.67
2022-09-27T12:36:05.656Z,93.33
2022-09-27T12:37:05.751Z,94.01
2022-09-27T12:38:05.916Z,93.09
2022-09-27T12:39:06.004Z,92.22
2022-09-27T12:40:06.155Z,92.63
2022-09-27T12:41:06.264Z,92.63
2022-09-27T12:42:06.417Z,91.40
2022-09-27T12:43:06.530Z,91.50
2022-09-27T12:44:06.705Z,91.61
2022-09-27T12:45:06.783Z,92.27
2022-09-27T12:46:07.008Z,90.81
2022-09-27T12:47:07.051Z,89.30
2022-09-27T12:48:07.203Z,86.80
2022-09-27T12:49:07.346Z,85.38
2022-09-27T12:50:07.432Z,85.38
2022-09-27T12:51:07.532Z,83.71
2022-09-27T12:52:07.695Z,82.82
2022-09-27T12:53:07.803Z,80.94
2022-09-27T12:54:08.015Z,79.25